Cecil, Ohio
Current Conditions -  °F | °C
As of 12:53 AM on Thursday 29 Jan 2015 (Local Time) from KDFI Reporting Station
Clear Clear  
Wind Chill: 21°   Ceiling: Unl
Heat Index: 29°   Visibility: 10mi
Dew Point: 18°   Wind: 8mph
Humidity: 64%   Direction: 160°SSE
Pressure: 30.04"   Gusts: 18mph
Location:  41.22°N, 84.6°W
Report Text: KDFI 290553Z AUTO 16007G16KT 10SM CLR M02/M08 A3004 RMK AO2 SLP181 T10171078 11017 21044 56036
Loading
Personal Weather Stations






























Interactive Weather Map New forecast layout! Learn more

10-Day Weather Forecast

Advertisements
Track Severe Weather on mobile